Time;durP1;ratioP1;P1;durP2;ratioP2;P2;SDS_P1;SDS_P2;PMS_P1;PMS_P2;Temp;Humidity;BMP_temperature;BMP_pressure;BME280_temperature;BME280_humidity;BME280_pressure;Samples;Min_cycle;Max_cycle;Signal;HPM_P1;HPM_P2
2023/08/05 00:00:42;;;;;;;12.82;3.22;;;20.60;86.00;;;;;;5027504;28;20057;-61
2023/08/05 00:03:07;;;;;;;12.00;3.40;;;20.60;85.40;;;;;;5027706;28;20037;-61
2023/08/05 00:05:33;;;;;;;11.93;4.18;;;20.50;85.30;;;;;;5027422;28;20038;-61
2023/08/05 00:07:58;;;;;;;10.98;3.47;;;20.50;85.30;;;;;;5028226;28;20030;-60
2023/08/05 00:10:24;;;;;;;8.68;2.85;;;20.50;85.30;;;;;;5026103;28;20025;-61
2023/08/05 00:12:49;;;;;;;16.15;3.67;;;20.50;85.30;;;;;;5026325;28;20050;-61
2023/08/05 00:15:15;;;;;;;10.27;3.45;;;20.50;85.30;;;;;;5026456;28;20030;-60
2023/08/05 00:17:40;;;;;;;10.00;3.35;;;20.50;85.20;;;;;;5026114;28;20048;-61
2023/08/05 00:20:08;;;;;;;9.25;3.28;;;20.50;85.20;;;;;;5026180;28;20034;-61
2023/08/05 00:22:33;;;;;;;14.02;3.10;;;20.40;85.20;;;;;;5026226;28;20049;-60
2023/08/05 00:24:59;;;;;;;8.93;2.92;;;20.40;85.20;;;;;;5026947;28;20022;-61
2023/08/05 00:27:24;;;;;;;8.80;2.97;;;20.40;85.30;;;;;;5026710;28;20029;-60
2023/08/05 00:29:50;;;;;;;7.30;2.40;;;20.40;85.30;;;;;;5027543;28;20030;-60
2023/08/05 00:32:15;;;;;;;5.80;2.65;;;20.40;85.40;;;;;;5026219;28;20121;-61
2023/08/05 00:34:41;;;;;;;8.13;2.50;;;20.40;85.50;;;;;;5026196;28;20056;-60
2023/08/05 00:37:06;;;;;;;10.90;3.05;;;20.30;85.50;;;;;;5026493;28;20030;-61
2023/08/05 00:39:32;;;;;;;8.82;2.70;;;20.30;85.40;;;;;;5028385;28;20025;-60
2023/08/05 00:41:58;;;;;;;4.75;2.35;;;20.30;85.40;;;;;;5028291;28;20450;-60
2023/08/05 00:44:23;;;;;;;7.72;2.58;;;20.30;86.10;;;;;;5026194;28;20446;-60
2023/08/05 00:46:49;;;;;;;10.77;2.65;;;20.30;85.40;;;;;;5027257;28;20030;-61
2023/08/05 00:49:15;;;;;;;9.82;2.58;;;20.20;85.30;;;;;;5026288;28;20363;-60
2023/08/05 00:51:40;;;;;;;8.80;2.35;;;20.30;85.40;;;;;;5025677;28;20026;-61
2023/08/05 00:54:06;;;;;;;6.75;2.25;;;20.30;85.30;;;;;;5025984;28;20155;-61
2023/08/05 00:56:32;;;;;;;7.82;2.58;;;20.20;85.40;;;;;;5025915;28;20071;-61
2023/08/05 00:58:57;;;;;;;5.57;2.28;;;20.20;85.40;;;;;;5025872;28;20081;-60
2023/08/05 01:01:23;;;;;;;9.93;2.60;;;20.20;85.30;;;;;;5025739;28;20045;-60
2023/08/05 01:03:49;;;;;;;6.85;2.45;;;20.10;85.40;;;;;;5025576;28;20037;-60
2023/08/05 01:06:14;;;;;;;6.43;2.17;;;20.20;85.50;;;;;;5024621;28;20076;-61
2023/08/05 01:08:40;;;;;;;4.60;2.03;;;20.10;85.50;;;;;;5007932;28;20474;-61
2023/08/05 01:11:05;;;;;;;8.07;2.30;;;20.10;85.50;;;;;;5025155;28;20089;-60
2023/08/05 01:13:31;;;;;;;4.95;2.42;;;20.10;85.50;;;;;;5025642;28;20084;-61
2023/08/05 01:15:56;;;;;;;6.93;2.25;;;20.10;85.50;;;;;;5026850;28;20042;-60
2023/08/05 01:18:22;;;;;;;8.77;2.13;;;20.10;85.50;;;;;;5024152;28;20386;-61
2023/08/05 01:20:51;;;;;;;5.90;2.20;;;20.10;85.50;;;;;;5008836;28;20034;-60
2023/08/05 01:23:26;;;;;;;4.82;2.00;;;20.10;85.50;;;;;;5008487;28;20034;-61
2023/08/05 01:25:52;;;;;;;3.97;1.98;;;20.00;85.50;;;;;;5024871;28;20062;-60
2023/08/05 01:28:17;;;;;;;4.22;1.80;;;20.00;85.50;;;;;;5009018;28;20407;-61
2023/08/05 01:30:43;;;;;;;7.57;2.22;;;20.00;85.50;;;;;;5008702;28;20117;-60
2023/08/05 01:33:08;;;;;;;5.28;2.00;;;20.00;85.50;;;;;;5008947;28;20022;-59
2023/08/05 01:35:34;;;;;;;4.72;2.15;;;20.00;85.50;;;;;;5008775;28;20049;-60
2023/08/05 01:38:00;;;;;;;4.93;2.00;;;20.00;85.50;;;;;;5025172;28;20026;-60
2023/08/05 01:40:28;;;;;;;4.80;2.40;;;20.00;85.60;;;;;;5026363;28;20393;-60
2023/08/05 01:42:56;;;;;;;5.85;2.35;;;20.00;85.60;;;;;;5009305;28;20030;-61
2023/08/05 01:45:22;;;;;;;4.10;2.10;;;20.00;85.70;;;;;;5024651;28;20068;-60
2023/08/05 01:47:47;;;;;;;4.47;2.20;;;20.00;85.70;;;;;;5024967;28;20018;-60
2023/08/05 01:50:13;;;;;;;7.18;2.28;;;20.00;85.80;;;;;;5026239;28;20033;-61
2023/08/05 01:52:38;;;;;;;4.80;2.13;;;19.90;85.80;;;;;;5026196;28;20017;-60
2023/08/05 01:55:04;;;;;;;6.68;1.95;;;19.90;85.90;;;;;;5024936;28;20022;-60
2023/08/05 01:57:29;;;;;;;5.47;2.13;;;19.90;85.90;;;;;;5024892;28;20026;-60
2023/08/05 01:59:55;;;;;;;4.80;2.10;;;19.90;86.60;;;;;;5026127;28;20128;-60
2023/08/05 02:02:21;;;;;;;5.90;2.00;;;19.90;86.00;;;;;;5008240;28;20049;-61
2023/08/05 02:04:46;;;;;;;6.18;2.10;;;19.90;86.10;;;;;;5023446;28;20037;-60
2023/08/05 02:07:12;;;;;;;3.45;1.75;;;19.80;86.10;;;;;;5024419;28;20037;-61
2023/08/05 02:09:37;;;;;;;2.97;1.95;;;19.80;86.20;;;;;;5025974;28;20033;-60
2023/08/05 02:12:03;;;;;;;3.55;2.00;;;19.80;86.30;;;;;;5025927;28;20061;-60
2023/08/05 02:14:28;;;;;;;3.97;1.73;;;19.80;86.30;;;;;;5024130;28;20077;-60
2023/08/05 02:16:54;;;;;;;3.78;1.88;;;19.80;86.30;;;;;;5023916;28;20033;-61
2023/08/05 02:19:19;;;;;;;2.15;1.70;;;19.80;86.30;;;;;;5023817;28;20461;-60
2023/08/05 02:21:45;;;;;;;3.53;1.90;;;19.80;86.30;;;;;;5024268;28;20038;-60
2023/08/05 02:24:11;;;;;;;5.72;2.35;;;19.80;86.40;;;;;;5024005;28;20334;-61
2023/08/05 02:26:37;;;;;;;2.80;1.88;;;19.70;86.50;;;;;;5007529;28;20430;-60
2023/08/05 02:29:02;;;;;;;2.47;1.80;;;19.80;86.60;;;;;;5023761;28;20157;-60
2023/08/05 02:31:28;;;;;;;4.65;1.73;;;19.70;86.60;;;;;;5025649;28;20065;-61
2023/08/05 02:33:53;;;;;;;4.50;1.83;;;19.80;86.80;;;;;;5025081;28;20025;-60
2023/08/05 02:36:19;;;;;;;5.28;1.70;;;19.70;86.80;;;;;;5007668;28;20048;-60
2023/08/05 02:38:44;;;;;;;2.38;1.75;;;19.70;86.90;;;;;;5023883;28;20061;-61
2023/08/05 02:41:10;;;;;;;3.17;1.88;;;19.70;87.00;;;;;;5023954;28;20038;-61
2023/08/05 02:43:35;;;;;;;3.88;1.50;;;19.70;87.10;;;;;;5007659;28;20037;-60
2023/08/05 02:46:01;;;;;;;4.70;2.03;;;19.60;87.10;;;;;;5025271;28;20044;-60
2023/08/05 02:48:27;;;;;;;2.65;1.70;;;19.60;87.20;;;;;;5025228;28;20022;-61
2023/08/05 02:50:52;;;;;;;3.88;2.00;;;19.60;87.30;;;;;;5023851;28;20030;-60
2023/08/05 02:53:18;;;;;;;3.38;2.17;;;19.60;87.40;;;;;;5007697;28;20026;-60
2023/08/05 02:55:44;;;;;;;2.53;1.77;;;19.60;87.50;;;;;;5023657;28;20053;-60
2023/08/05 02:58:09;;;;;;;2.75;1.85;;;19.60;87.50;;;;;;5023899;28;20093;-60
2023/08/05 03:00:35;;;;;;;3.80;1.73;;;19.60;87.60;;;;;;5007450;28;20029;-60
2023/08/05 03:03:01;;;;;;;4.45;2.08;;;19.60;87.70;;;;;;5023567;28;20090;-60
2023/08/05 03:05:26;;;;;;;3.78;1.90;;;19.60;87.70;;;;;;5023501;28;20117;-61
2023/08/05 03:07:52;;;;;;;2.13;1.80;;;19.50;87.70;;;;;;5007173;28;20018;-60
2023/08/05 03:10:17;;;;;;;3.65;1.80;;;19.50;87.90;;;;;;5023709;28;20497;-60
2023/08/05 03:12:43;;;;;;;4.47;1.80;;;19.50;88.00;;;;;;5023658;28;20451;-61
2023/08/05 03:15:09;;;;;;;2.55;1.73;;;19.50;88.00;;;;;;5024970;28;20022;-60
2023/08/05 03:17:35;;;;;;;3.53;1.70;;;19.50;88.20;;;;;;5023322;28;20037;-60
2023/08/05 03:20:02;;;;;;;2.50;1.80;;;19.40;88.20;;;;;;5007010;28;20025;-60
2023/08/05 03:22:28;;;;;;;2.38;1.67;;;19.50;88.30;;;;;;5025254;28;20049;-60
2023/08/05 03:24:53;;;;;;;3.17;1.92;;;19.50;88.60;;;;;;5024897;28;20073;-60
2023/08/05 03:27:19;;;;;;;3.40;1.80;;;19.50;88.40;;;;;;5022343;28;20025;-60
2023/08/05 03:29:46;;;;;;;2.92;1.85;;;19.50;88.40;;;;;;5023108;28;20026;-60
2023/08/05 03:32:11;;;;;;;2.38;1.70;;;19.40;88.50;;;;;;5006709;28;20036;-60
2023/08/05 03:34:37;;;;;;;3.30;1.90;;;19.40;88.60;;;;;;5024723;28;20053;-59
2023/08/05 03:37:03;;;;;;;2.03;1.70;;;19.40;88.50;;;;;;5023454;28;20034;-61
2023/08/05 03:39:29;;;;;;;2.05;1.65;;;19.40;88.40;;;;;;5023400;28;20037;-60
2023/08/05 03:41:54;;;;;;;3.60;1.90;;;19.40;88.40;;;;;;5024559;28;20474;-60
2023/08/05 03:44:20;;;;;;;3.05;1.80;;;19.40;88.40;;;;;;5024642;28;20551;-60
2023/08/05 03:46:45;;;;;;;3.10;2.00;;;19.40;88.40;;;;;;5024569;28;20026;-60
2023/08/05 03:49:11;;;;;;;2.45;1.88;;;19.40;88.50;;;;;;5006910;28;20033;-60
2023/08/05 03:51:36;;;;;;;3.83;1.70;;;19.40;88.80;;;;;;5023209;28;20470;-60
2023/08/05 03:54:02;;;;;;;3.88;1.80;;;19.40;89.00;;;;;;5023173;28;20105;-61
2023/08/05 03:56:28;;;;;;;2.75;1.70;;;19.40;89.20;;;;;;5023218;28;20152;-60
2023/08/05 03:58:57;;;;;;;2.08;1.80;;;19.30;89.20;;;;;;5023169;28;20033;-60
2023/08/05 04:01:23;;;;;;;3.95;1.95;;;19.30;89.20;;;;;;4990456;28;20034;-61
2023/08/05 04:03:51;;;;;;;2.83;2.20;;;19.30;89.30;;;;;;5006820;28;20030;-60
2023/08/05 04:06:20;;;;;;;2.72;1.90;;;19.30;89.40;;;;;;5021623;28;20045;-60
2023/08/05 04:08:48;;;;;;;3.97;1.98;;;19.30;89.50;;;;;;5022972;28;20033;-60
2023/08/05 04:11:14;;;;;;;2.83;1.48;;;19.30;89.50;;;;;;5023410;28;20038;-60
2023/08/05 04:13:39;;;;;;;17.85;3.28;;;19.30;89.60;;;;;;5022326;28;20139;-60
2023/08/05 04:16:06;;;;;;;53.53;6.75;;;19.30;89.70;;;;;;5021241;28;20180;-61
2023/08/05 04:18:34;;;;;;;40.05;5.97;;;19.30;89.50;;;;;;5023507;28;20030;-60
2023/08/05 04:21:00;;;;;;;26.05;5.32;;;19.30;89.40;;;;;;5023118;28;20042;-60
2023/08/05 04:23:29;;;;;;;40.78;5.25;;;19.30;89.30;;;;;;5021357;28;20069;-61
2023/08/05 04:25:54;;;;;;;30.00;4.70;;;19.30;89.30;;;;;;5023309;28;20056;-60
2023/08/05 04:28:20;;;;;;;18.20;4.18;;;19.30;89.50;;;;;;5026731;28;20021;-61
2023/08/05 04:30:48;;;;;;;24.05;4.80;;;19.30;89.50;;;;;;5026528;28;20041;-61
2023/08/05 04:33:13;;;;;;;23.83;4.13;;;19.20;89.60;;;;;;5009916;28;20021;-61
2023/08/05 04:35:47;;;;;;;23.17;4.28;;;19.20;89.60;;;;;;5026578;28;20041;-60
2023/08/05 04:38:12;;;;;;;26.73;4.70;;;19.20;89.70;;;;;;5010987;28;20078;-60
2023/08/05 04:40:38;;;;;;;37.65;4.93;;;19.30;89.70;;;;;;5026441;28;20056;-61
2023/08/05 04:43:03;;;;;;;30.98;4.65;;;19.20;89.70;;;;;;5025387;28;20041;-60
2023/08/05 04:45:29;;;;;;;29.02;4.28;;;19.20;89.80;;;;;;5026137;28;20417;-60
2023/08/05 04:47:54;;;;;;;22.23;4.57;;;19.20;89.70;;;;;;5025651;28;20450;-60
2023/08/05 04:50:20;;;;;;;16.65;3.65;;;19.20;89.70;;;;;;5026119;28;20470;-60
2023/08/05 04:52:46;;;;;;;19.88;4.28;;;19.20;89.80;;;;;;5025813;28;20493;-60
2023/08/05 04:55:12;;;;;;;26.10;4.47;;;19.20;89.80;;;;;;5026192;28;20462;-60
2023/08/05 04:57:38;;;;;;;18.48;4.28;;;19.20;89.80;;;;;;5026022;28;20029;-60
2023/08/05 05:00:04;;;;;;;18.15;4.32;;;19.30;89.80;;;;;;5024871;28;20080;-61
2023/08/05 05:02:30;;;;;;;16.75;4.72;;;19.30;89.60;;;;;;5025005;28;20045;-60
2023/08/05 05:04:55;;;;;;;17.92;4.25;;;19.30;89.50;;;;;;5008858;28;20037;-60
2023/08/05 05:07:21;;;;;;;21.58;5.35;;;19.30;89.50;;;;;;5025074;28;20049;-60
2023/08/05 05:09:47;;;;;;;28.08;6.28;;;19.30;89.60;;;;;;5025803;28;20026;-60
2023/08/05 05:12:12;;;;;;;19.58;6.03;;;19.20;89.60;;;;;;5026967;28;20032;-60
2023/08/05 05:14:43;;;;;;;29.98;6.13;;;19.20;89.70;;;;;;5025686;28;20021;-60
2023/08/05 05:17:09;;;;;;;28.88;5.78;;;19.20;89.70;;;;;;5025617;28;20090;-60
2023/08/05 05:19:34;;;;;;;16.23;4.45;;;19.20;89.70;;;;;;5025816;28;20033;-60
2023/08/05 05:22:00;;;;;;;20.58;5.30;;;19.20;89.70;;;;;;5025097;28;20059;-60
2023/08/05 05:24:25;;;;;;;15.35;5.30;;;19.20;89.70;;;;;;5024901;28;20354;-60
2023/08/05 05:26:51;;;;;;;21.02;4.82;;;19.20;89.70;;;;;;5025025;28;20041;-60
2023/08/05 05:29:19;;;;;;;19.88;5.40;;;19.20;89.70;;;;;;5026690;28;20359;-60
2023/08/05 05:31:45;;;;;;;13.95;4.13;;;19.20;89.70;;;;;;5009767;28;20082;-60
2023/08/05 05:34:10;;;;;;;15.75;4.80;;;19.20;89.70;;;;;;5026021;28;20022;-61
2023/08/05 05:36:36;;;;;;;12.88;4.25;;;19.20;89.70;;;;;;5026631;28;20037;-60
2023/08/05 05:39:01;;;;;;;15.45;4.63;;;19.20;89.70;;;;;;5025132;28;20025;-60
2023/08/05 05:41:27;;;;;;;16.95;4.45;;;19.20;89.80;;;;;;5008678;28;20080;-60
2023/08/05 05:43:53;;;;;;;12.90;4.53;;;19.20;89.70;;;;;;4992439;28;20022;-60
2023/08/05 05:46:19;;;;;;;15.43;4.00;;;19.20;89.80;;;;;;5024883;28;20038;-61
2023/08/05 05:48:45;;;;;;;14.07;4.22;;;19.20;89.80;;;;;;5025074;28;20022;-60
2023/08/05 05:51:11;;;;;;;22.35;4.45;;;19.20;89.80;;;;;;5024963;28;20049;-61
2023/08/05 05:53:36;;;;;;;10.40;4.18;;;19.20;89.80;;;;;;4992354;28;20047;-61
2023/08/05 05:56:02;;;;;;;10.48;3.92;;;19.20;89.80;;;;;;5024885;28;20045;-60
2023/08/05 05:58:28;;;;;;;9.65;3.83;;;19.20;89.90;;;;;;5024730;28;20129;-61
2023/08/05 06:00:57;;;;;;;10.45;3.47;;;19.10;89.80;;;;;;5026274;28;20156;-61
2023/08/05 06:03:22;;;;;;;12.43;3.60;;;19.10;89.90;;;;;;5024735;28;20348;-60
2023/08/05 06:05:50;;;;;;;12.05;4.10;;;19.10;89.90;;;;;;5025773;28;20042;-60
2023/08/05 06:08:15;;;;;;;10.18;3.22;;;19.20;89.90;;;;;;4992591;28;20020;-60
2023/08/05 06:10:41;;;;;;;10.32;3.35;;;19.10;89.90;;;;;;5024626;28;20046;-60
2023/08/05 06:13:07;;;;;;;5.90;3.28;;;19.10;89.80;;;;;;5023402;28;20018;-60
2023/08/05 06:15:32;;;;;;;12.35;3.40;;;19.20;89.90;;;;;;5006275;28;20091;-60
2023/08/05 06:17:58;;;;;;;11.43;3.65;;;19.10;89.80;;;;;;5025357;28;20021;-60
2023/08/05 06:20:24;;;;;;;10.05;3.78;;;19.10;89.80;;;;;;5024529;28;20037;-60
2023/08/05 06:22:49;;;;;;;7.75;3.38;;;19.10;89.90;;;;;;5025647;28;20026;-60
2023/08/05 06:25:15;;;;;;;7.45;3.30;;;19.20;89.80;;;;;;5025691;28;20036;-60
2023/08/05 06:27:40;;;;;;;10.38;3.28;;;19.10;89.70;;;;;;5024481;28;20037;-61
2023/08/05 06:30:07;;;;;;;6.32;3.15;;;19.10;89.60;;;;;;5008044;28;20109;-61
2023/08/05 06:32:32;;;;;;;8.13;3.53;;;19.10;89.40;;;;;;5025858;28;20042;-60
2023/08/05 06:34:58;;;;;;;6.90;2.80;;;19.20;89.50;;;;;;5024258;28;20018;-61
2023/08/05 06:37:23;;;;;;;7.38;3.10;;;19.10;89.60;;;;;;5025447;28;20033;-60
2023/08/05 06:39:49;;;;;;;7.30;3.35;;;19.20;89.70;;;;;;5024043;28;20025;-60
2023/08/05 06:42:14;;;;;;;8.63;3.05;;;19.10;89.60;;;;;;5024189;28;20030;-60
2023/08/05 06:44:43;;;;;;;6.18;3.20;;;19.20;89.70;;;;;;5007659;28;20090;-60
2023/08/05 06:47:08;;;;;;;6.55;3.22;;;19.10;89.60;;;;;;5008062;28;20034;-61
2023/08/05 06:49:35;;;;;;;8.82;2.88;;;19.20;89.50;;;;;;5025149;28;20014;-60
2023/08/05 06:52:00;;;;;;;6.10;2.90;;;19.20;89.40;;;;;;5023556;28;20049;-60
2023/08/05 06:54:26;;;;;;;6.70;2.72;;;19.20;89.30;;;;;;5007577;28;20085;-60
2023/08/05 06:56:52;;;;;;;8.45;3.40;;;19.20;89.30;;;;;;5025384;28;20037;-60
2023/08/05 06:59:17;;;;;;;9.82;3.03;;;19.20;89.20;;;;;;5007416;28;20084;-61
2023/08/05 07:01:43;;;;;;;9.52;3.03;;;19.20;89.30;;;;;;5021812;28;20041;-61
2023/08/05 07:04:09;;;;;;;8.27;3.20;;;19.20;89.90;;;;;;5039644;28;20106;-60
2023/08/05 07:06:34;;;;;;;7.60;2.80;;;19.20;89.20;;;;;;5023755;28;20026;-61
2023/08/05 07:09:03;;;;;;;5.85;2.50;;;19.20;89.10;;;;;;5024606;28;20026;-61
2023/08/05 07:18:41;;;;;;;4.88;2.50;;;19.30;88.70;;;;;;5024755;28;20045;-60
2023/08/05 07:54:52;;;;;;;6.90;2.75;;;19.40;88.20;;;;;;5024660;28;20029;-60
2023/08/05 07:57:18;;;;;;;3.90;2.33;;;19.40;88.00;;;;;;5005291;28;20026;-60
2023/08/05 07:59:43;;;;;;;5.50;2.70;;;19.40;88.00;;;;;;5019743;28;20117;-61
2023/08/05 08:02:10;;;;;;;4.78;2.78;;;19.40;88.20;;;;;;5022345;28;20026;-60
2023/08/05 08:04:36;;;;;;;5.43;2.75;;;19.40;88.30;;;;;;5026790;28;20060;-60
2023/08/05 08:07:01;;;;;;;3.28;2.47;;;19.40;88.40;;;;;;5025007;28;20045;-61
2023/08/05 08:09:29;;;;;;;6.65;2.83;;;19.40;88.30;;;;;;5026179;28;20018;-60
2023/08/05 08:11:55;;;;;;;8.63;3.10;;;19.40;88.40;;;;;;5022906;28;20030;-61
2023/08/05 08:14:21;;;;;;;5.65;2.75;;;19.40;88.70;;;;;;5042119;28;20054;-61
2023/08/05 08:16:46;;;;;;;5.90;2.80;;;19.40;88.70;;;;;;5027721;28;20065;-60
2023/08/05 08:19:13;;;;;;;8.00;2.97;;;19.40;89.00;;;;;;5026123;28;20374;-61
2023/08/05 08:21:39;;;;;;;6.32;2.65;;;19.40;89.00;;;;;;5005474;28;20038;-60
2023/08/05 08:24:07;;;;;;;10.65;2.97;;;19.40;89.10;;;;;;5007006;28;20037;-60
2023/08/05 08:26:32;;;;;;;7.80;3.75;;;19.40;89.20;;;;;;5006509;28;20038;-60
2023/08/05 08:28:58;;;;;;;8.90;2.72;;;19.40;89.50;;;;;;5022677;28;20086;-61
2023/08/05 08:31:29;;;;;;;13.25;3.40;;;19.40;89.60;;;;;;5018226;28;20065;-61
2023/08/05 08:33:54;;;;;;;12.77;3.47;;;19.40;89.50;;;;;;5026141;28;20025;-60
2023/08/05 08:36:20;;;;;;;10.35;3.70;;;19.50;89.70;;;;;;5019255;28;20038;-60
2023/08/05 08:38:46;;;;;;;20.92;4.40;;;19.50;89.50;;;;;;5023636;28;20040;-60
2023/08/05 08:41:11;;;;;;;55.08;8.32;;;19.50;89.60;;;;;;5019982;28;20038;-60
2023/08/05 08:43:37;;;;;;;40.25;6.28;;;19.50;89.70;;;;;;5016435;28;20034;-60
2023/08/05 08:46:05;;;;;;;39.88;7.20;;;19.50;89.80;;;;;;5012649;28;20041;-61
2023/08/05 08:48:30;;;;;;;44.00;6.72;;;19.50;89.70;;;;;;5019531;28;20053;-60
2023/08/05 08:50:56;;;;;;;50.80;6.82;;;19.50;89.70;;;;;;5022960;28;20034;-61
2023/08/05 08:53:21;;;;;;;43.10;6.50;;;19.60;89.70;;;;;;5018756;28;20351;-61
2023/08/05 08:55:47;;;;;;;54.97;8.27;;;19.60;89.70;;;;;;5025008;28;20057;-60
2023/08/05 08:58:13;;;;;;;52.97;7.57;;;19.60;90.00;;;;;;5025163;28;20030;-60
2023/08/05 09:00:38;;;;;;;58.88;10.15;;;19.60;89.80;;;;;;5023674;28;20115;-60
2023/08/05 09:03:04;;;;;;;58.10;9.57;;;19.70;89.70;;;;;;5026596;28;20022;-60
2023/08/05 09:05:54;;;;;;;52.88;7.97;;;19.70;89.80;;;;;;5024659;28;20036;-60
2023/08/05 09:08:19;;;;;;;57.10;8.38;;;19.70;89.10;;;;;;5011201;28;20033;-60
2023/08/05 09:10:45;;;;;;;43.67;7.45;;;19.70;89.30;;;;;;5026169;28;20030;-61
2023/08/05 09:13:11;;;;;;;42.47;7.40;;;19.80;89.30;;;;;;5025838;28;20037;-60
2023/08/05 09:15:37;;;;;;;58.08;7.78;;;19.80;89.10;;;;;;5026985;28;20044;-60
2023/08/05 09:18:05;;;;;;;42.53;8.13;;;19.80;88.90;;;;;;5006070;28;20080;-60
2023/08/05 09:20:31;;;;;;;76.30;10.88;;;19.80;88.70;;;;;;5026697;28;20030;-60
2023/08/05 09:23:01;;;;;;;90.90;11.15;;;19.80;88.50;;;;;;5025390;28;20017;-60
2023/08/05 09:25:27;;;;;;;77.95;10.43;;;19.80;88.40;;;;;;5027314;28;20037;-60
2023/08/05 09:27:53;;;;;;;89.95;11.50;;;19.80;88.40;;;;;;5024577;28;20034;-60
2023/08/05 09:30:20;;;;;;;77.20;10.43;;;19.80;88.30;;;;;;5025073;28;20022;-61
2023/08/05 09:32:46;;;;;;;70.97;10.48;;;19.90;88.30;;;;;;5025153;28;20164;-60
2023/08/05 09:35:12;;;;;;;58.58;9.43;;;19.90;88.30;;;;;;5024142;28;20050;-60
2023/08/05 09:37:41;;;;;;;78.10;10.55;;;19.90;88.20;;;;;;5023809;28;20030;-60
2023/08/05 09:40:17;;;;;;;82.45;10.70;;;19.90;88.30;;;;;;5014466;28;20038;-60
2023/08/05 09:42:49;;;;;;;67.88;10.27;;;19.90;88.30;;;;;;5016408;28;20209;-60
2023/08/05 09:45:18;;;;;;;91.03;11.50;;;19.90;88.30;;;;;;5016688;28;20041;-60
2023/08/05 09:47:43;;;;;;;69.60;10.30;;;19.90;88.10;;;;;;5017448;28;20092;-60
2023/08/05 09:50:13;;;;;;;80.68;12.55;;;19.90;88.10;;;;;;5014126;28;20057;-60
2023/08/05 09:52:39;;;;;;;74.15;11.10;;;20.00;88.40;;;;;;5016912;28;20033;-61
2023/08/05 09:55:08;;;;;;;104.72;14.00;;;20.00;88.70;;;;;;5016038;28;20023;-60
2023/08/05 09:57:34;;;;;;;85.97;12.20;;;20.00;88.60;;;;;;5014572;28;20025;-60
2023/08/05 10:00:00;;;;;;;63.67;10.45;;;20.10;88.50;;;;;;5014938;28;20080;-60
2023/08/05 10:02:26;;;;;;;96.95;13.45;;;20.10;88.10;;;;;;5012767;28;20026;-61
2023/08/05 10:04:53;;;;;;;97.38;12.43;;;20.10;88.10;;;;;;5033473;28;20030;-60
2023/08/05 10:07:28;;;;;;;94.65;11.45;;;20.10;88.10;;;;;;5013043;28;20042;-60
2023/08/05 10:09:54;;;;;;;61.10;10.70;;;20.20;87.90;;;;;;5013500;28;20123;-60
2023/08/05 10:12:21;;;;;;;63.85;10.57;;;20.20;87.70;;;;;;5017524;28;20133;-60
2023/08/05 10:14:47;;;;;;;56.95;8.98;;;20.20;87.20;;;;;;5017109;28;20499;-60
2023/08/05 10:17:13;;;;;;;60.17;9.25;;;20.30;86.70;;;;;;5020165;28;20085;-59
2023/08/05 10:19:38;;;;;;;56.35;9.90;;;20.30;86.20;;;;;;4993861;28;20060;-60
2023/08/05 10:22:10;;;;;;;63.38;11.63;;;20.30;86.00;;;;;;5018203;28;20030;-60
2023/08/05 10:24:56;;;;;;;79.28;10.45;;;20.40;85.90;;;;;;5013795;28;20038;-60
2023/08/05 10:27:44;;;;;;;70.88;10.25;;;20.40;85.50;;;;;;5013271;28;20030;-59
2023/08/05 10:30:11;;;;;;;65.05;9.50;;;20.50;85.30;;;;;;5012269;28;20041;-60
2023/08/05 10:32:56;;;;;;;53.70;9.27;;;20.50;85.30;;;;;;5014548;28;20085;-60
2023/08/05 10:35:32;;;;;;;81.28;10.60;;;20.50;85.90;;;;;;5014324;28;20030;-59
2023/08/05 10:38:06;;;;;;;82.95;11.57;;;20.50;85.50;;;;;;5014532;28;20025;-60
2023/08/05 10:40:51;;;;;;;55.53;9.45;;;20.50;85.70;;;;;;5012786;28;20038;-60
2023/08/05 10:43:34;;;;;;;62.17;9.87;;;20.50;85.60;;;;;;5016280;28;20037;-60
2023/08/05 10:46:05;;;;;;;61.30;9.15;;;20.60;85.50;;;;;;5014616;28;20029;-60
2023/08/05 10:48:41;;;;;;;59.72;8.40;;;20.60;85.50;;;;;;5016052;28;20052;-59
2023/08/05 10:51:08;;;;;;;48.78;8.65;;;20.60;85.50;;;;;;5011971;28;20030;-60
2023/08/05 10:53:34;;;;;;;48.72;8.60;;;20.60;85.50;;;;;;5005615;28;20122;-60
2023/08/05 10:56:00;;;;;;;50.25;8.50;;;20.60;85.40;;;;;;5004069;28;20057;-60
2023/08/05 10:58:29;;;;;;;34.47;8.18;;;20.60;85.30;;;;;;5008832;28;20467;-60
2023/08/05 11:01:02;;;;;;;44.95;8.20;;;20.70;85.10;;;;;;5026691;28;20044;-60
2023/08/05 11:03:50;;;;;;;47.13;8.68;;;20.60;85.00;;;;;;5025099;28;20076;-60
2023/08/05 11:06:21;;;;;;;43.75;7.38;;;20.70;85.10;;;;;;5021032;28;20045;-60
2023/08/05 11:08:47;;;;;;;50.63;8.48;;;20.70;85.20;;;;;;5020333;28;20090;-60
2023/08/05 11:11:13;;;;;;;46.65;6.95;;;20.70;85.10;;;;;;5020246;28;20034;-60
2023/08/05 11:13:46;;;;;;;43.72;7.82;;;20.70;85.10;;;;;;5004038;28;20049;-60
2023/08/05 11:16:13;;;;;;;51.25;7.70;;;20.70;85.60;;;;;;5022743;28;20037;-60
2023/08/05 11:18:39;;;;;;;44.30;7.63;;;20.70;85.00;;;;;;5004049;28;20129;-60
2023/08/05 11:21:06;;;;;;;61.33;8.43;;;20.70;84.90;;;;;;4990431;28;20039;-59
2023/08/05 11:23:32;;;;;;;61.20;8.25;;;20.80;84.80;;;;;;5005534;28;20022;-60
2023/08/05 11:25:59;;;;;;;56.55;8.93;;;20.80;84.80;;;;;;5013192;28;20060;-60
2023/08/05 11:28:25;;;;;;;55.40;8.52;;;20.80;84.70;;;;;;4997725;28;20048;-60
2023/08/05 11:30:50;;;;;;;45.50;7.65;;;20.90;84.70;;;;;;5013178;28;20030;-60
2023/08/05 11:33:16;;;;;;;68.38;8.70;;;20.90;84.30;;;;;;5013383;28;20049;-60
2023/08/05 11:35:46;;;;;;;66.05;9.02;;;21.00;84.20;;;;;;5016989;28;20426;-60
2023/08/05 11:38:15;;;;;;;67.55;8.57;;;21.00;84.00;;;;;;5002963;28;20033;-60
2023/08/05 11:40:42;;;;;;;45.72;7.45;;;21.00;84.00;;;;;;5016855;28;20036;-60
2023/08/05 11:43:08;;;;;;;62.13;9.88;;;21.00;83.90;;;;;;5037097;28;20042;-60
2023/08/05 11:45:37;;;;;;;73.05;8.88;;;21.10;83.60;;;;;;5007191;28;20038;-60
2023/08/05 11:48:03;;;;;;;69.72;9.00;;;21.10;83.60;;;;;;5018847;28;20033;-60
2023/08/05 11:50:35;;;;;;;77.85;11.65;;;21.10;83.20;;;;;;5020364;28;20031;-60
2023/08/05 11:53:05;;;;;;;81.32;10.80;;;21.20;82.90;;;;;;5016594;28;20042;-60
2023/08/05 11:55:37;;;;;;;45.88;8.93;;;21.20;82.70;;;;;;5021739;28;20126;-60
2023/08/05 11:58:03;;;;;;;51.38;9.18;;;21.20;82.60;;;;;;5008209;28;20018;-60
2023/08/05 12:00:28;;;;;;;51.45;9.18;;;21.30;82.60;;;;;;5036282;28;20030;-59
2023/08/05 12:02:54;;;;;;;70.30;9.48;;;21.30;82.80;;;;;;5023460;28;20129;-60
2023/08/05 12:05:19;;;;;;;52.38;9.02;;;21.30;82.30;;;;;;5013602;28;20034;-60
2023/08/05 12:07:45;;;;;;;54.53;9.15;;;21.40;82.50;;;;;;5025948;28;20037;-60
2023/08/05 12:10:11;;;;;;;138.30;16.27;;;21.40;81.90;;;;;;5020024;28;20345;-61
2023/08/05 12:12:38;;;;;;;88.32;12.18;;;21.50;81.60;;;;;;5032059;28;20024;-60
2023/08/05 12:15:13;;;;;;;127.90;13.65;;;21.50;81.70;;;;;;5017393;28;20025;-60
2023/08/05 12:17:48;;;;;;;64.45;10.80;;;21.50;81.60;;;;;;5022156;28;20061;-59
2023/08/05 12:20:28;;;;;;;69.68;10.63;;;21.60;81.30;;;;;;5033364;28;20030;-59
2023/08/05 12:22:53;;;;;;;61.25;9.75;;;21.60;81.30;;;;;;5013015;28;20026;-58
2023/08/05 12:25:19;;;;;;;91.53;11.32;;;21.60;81.30;;;;;;5015053;28;20037;-60
2023/08/05 12:27:45;;;;;;;77.97;10.48;;;21.70;81.20;;;;;;5011775;28;20102;-60
2023/08/05 12:30:11;;;;;;;89.60;11.93;;;21.70;81.20;;;;;;5016971;28;20104;-59
2023/08/05 12:32:36;;;;;;;86.45;11.80;;;21.70;81.00;;;;;;5026032;28;20051;-60
2023/08/05 12:35:04;;;;;;;100.63;13.95;;;21.80;81.10;;;;;;5009464;28;20026;-60
2023/08/05 12:37:30;;;;;;;87.03;12.55;;;21.80;80.80;;;;;;5014643;28;20281;-60
2023/08/05 12:39:55;;;;;;;104.05;13.80;;;21.80;80.80;;;;;;5009270;28;20037;-60
2023/08/05 12:42:21;;;;;;;111.88;14.10;;;21.80;80.80;;;;;;5022910;28;20037;-60
2023/08/05 12:44:47;;;;;;;96.82;14.88;;;21.90;80.60;;;;;;5024129;28;20088;-58
2023/08/05 12:47:12;;;;;;;114.57;16.55;;;22.00;80.60;;;;;;5040537;28;20045;-60
2023/08/05 12:49:39;;;;;;;93.97;14.15;;;22.00;80.40;;;;;;5004809;28;20025;-60
2023/08/05 12:52:05;;;;;;;108.63;15.48;;;22.10;80.20;;;;;;5020201;28;20101;-60
2023/08/05 12:54:31;;;;;;;102.65;14.93;;;22.10;80.10;;;;;;5021330;28;20038;-60
2023/08/05 12:56:56;;;;;;;67.30;11.57;;;22.20;79.90;;;;;;5023636;28;20034;-60
2023/08/05 12:59:22;;;;;;;68.47;12.07;;;22.20;79.60;;;;;;4998796;28;20379;-60
2023/08/05 13:01:47;;;;;;;94.25;12.27;;;22.20;79.30;;;;;;5012975;28;20041;-60
2023/08/05 13:04:13;;;;;;;82.47;11.20;;;22.30;79.30;;;;;;5018817;28;20025;-60
2023/08/05 13:06:39;;;;;;;81.85;11.57;;;22.30;79.20;;;;;;5016288;28;20320;-60
2023/08/05 13:09:04;;;;;;;84.25;11.68;;;22.30;79.00;;;;;;5016890;28;20356;-60
2023/08/05 13:11:30;;;;;;;71.40;11.50;;;22.40;78.80;;;;;;4999497;28;20042;-60
2023/08/05 13:13:55;;;;;;;84.93;11.50;;;22.40;78.50;;;;;;5014808;28;20044;-59
2023/08/05 13:16:21;;;;;;;115.03;11.85;;;22.50;78.30;;;;;;5011176;28;20037;-60